Stations météo

réclame
Mon MeteoGroup
Otranto, Italie (16334): Température de l'air & dewpoint: 15.09.2018 04:00:00 - 21.09.2018 04:00:00 (CEST)Otranto, Italie (16334): Vitesse du vent: 15.09.2018 04:00:00 - 21.09.2018 04:00:00 (CEST)Otranto, Italie (16334): Direction du vent: 15.09.2018 04:00:00 - 21.09.2018 04:00:00 (CEST)Otranto, Italie (16334): reduced air pressure: 15.09.2018 04:00:00 - 21.09.2018 04:00:00 (CEST)Otranto, Italie (16334): Quantités de précipitations: 15.09.2018 04:00:00 - 21.09.2018 04:00:00 (CEST)
Date & Time tt [°C] td [°C] ff [km/h] ff [knt] dd ppp [hPa] rr [mm]
21.09.2018 04:00:00 - - - - - - -
21.09.2018 03:00:00 21,3 21,2 4 2 NW 1015,5 -
21.09.2018 02:00:00 21,2 21,1 4 2 N 1015,8 0,0
21.09.2018 01:00:00 21,2 21,1 5 3 NNW 1016,1 -
21.09.2018 00:00:00 21,9 21,8 5 3 NNW 1016,2 -
20.09.2018 23:00:00 22,1 22,0 8 4 NNW 1016,2 -
20.09.2018 22:00:00 22,0 21,9 8 4 NNW 1016,2 -
20.09.2018 21:00:00 22,8 22,7 8 4 NNW 1016,3 -
20.09.2018 20:00:00 23,5 23,4 8 4 N 1015,9 0,0
20.09.2018 19:00:00 24,5 24,4 11 6 NNE 1015,4 -
20.09.2018 18:00:00 25,4 25,3 13 7 N 1015,6 -
20.09.2018 17:00:00 25,9 25,9 15 8 N 1015,6 -
20.09.2018 16:00:00 26,3 26,3 13 7 ENE 1015,9 -
20.09.2018 15:00:00 26,2 26,2 13 7 N 1016,2 -
20.09.2018 14:00:00 26,3 26,3 11 6 NNE 1016,6 0,0
20.09.2018 13:00:00 26,2 26,2 11 6 NNE 1016,9 -
20.09.2018 12:00:00 26,0 26,0 13 7 ENE 1017,3 -
20.09.2018 11:00:00 25,6 25,5 13 7 NNW 1017,6 -
20.09.2018 10:00:00 25,2 25,1 13 7 N 1017,3 -
20.09.2018 09:00:00 25,1 25,0 13 7 NNE 1017,1 -
20.09.2018 08:00:00 24,2 24,1 13 7 NNE 1016,9 0,0
20.09.2018 07:00:00 21,8 21,7 9 5 N 1016,8 -
20.09.2018 06:00:00 21,2 21,1 9 5 N 1016,7 -
20.09.2018 05:00:00 21,2 21,1 8 4 NW 1016,7 -
20.09.2018 04:00:00 20,9 20,8 5 3 NW 1017,1 -
20.09.2018 03:00:00 21,3 21,2 5 3 NNW 1017,3 -
20.09.2018 02:00:00 22,3 22,2 5 3 N 1017,5 0,0
20.09.2018 01:00:00 22,0 21,9 4 2 NW 1017,9 -
20.09.2018 00:00:00 22,4 22,2 5 3 NNW 1017,9 -
19.09.2018 23:00:00 23,4 23,0 4 2 NNE 1017,9 -
19.09.2018 22:00:00 23,7 23,3 4 2 NNE 1018,3 -
19.09.2018 21:00:00 23,2 21,8 2 1 E 1018,2 -
19.09.2018 20:00:00 23,7 22,3 2 1 E 1017,8 0,0
19.09.2018 19:00:00 24,8 23,5 0 0 N 1017,6 -
19.09.2018 18:00:00 26,1 23,3 2 1 ENE 1017,0 -
19.09.2018 17:00:00 26,7 24,1 4 2 E 1017,0 -
19.09.2018 16:00:00 26,4 24,4 8 4 ENE 1017,2 -
19.09.2018 15:00:00 26,7 24,5 11 6 ESE 1017,5 -
19.09.2018 14:00:00 26,7 24,5 11 6 ESE 1017,8 0,0
19.09.2018 13:00:00 26,8 25,5 9 5 E 1018,4 -
19.09.2018 12:00:00 26,3 25,8 8 4 ENE 1018,6 -
19.09.2018 11:00:00 26,2 24,6 8 4 NE 1018,7 -
19.09.2018 10:00:00 25,8 25,6 8 4 ENE 1018,6 -
19.09.2018 09:00:00 24,6 24,5 8 4 NNE 1018,6 -
19.09.2018 08:00:00 22,3 22,2 4 2 NNW 1018,5 0,0
19.09.2018 07:00:00 21,2 21,1 5 3 NNW 1018,3 -
19.09.2018 06:00:00 21,0 20,9 5 3 NW 1018,2 -
19.09.2018 05:00:00 22,5 22,4 4 2 N 1017,9 -
19.09.2018 04:00:00 21,5 20,1 4 2 NW 1018,2 -
19.09.2018 03:00:00 22,7 22,6 5 3 N 1018,2 -
19.09.2018 02:00:00 22,2 20,8 4 2 NNW 1018,7 0,0
19.09.2018 01:00:00 22,2 20,8 4 2 N 1018,6 -
19.09.2018 00:00:00 21,7 21,6 4 2 WNW 1018,9 -
18.09.2018 23:00:00 22,0 21,9 4 2 NW 1019,0 -
18.09.2018 22:00:00 22,7 22,6 2 1 NW 1018,7 -
18.09.2018 21:00:00 23,0 22,8 0 0 N 1018,6 -
18.09.2018 20:00:00 23,3 21,9 0 0 N 1018,3 0,0
18.09.2018 19:00:00 24,5 22,9 0 0 N 1018,0 -
18.09.2018 18:00:00 25,8 24,2 4 2 ESE 1018,1 -
18.09.2018 17:00:00 26,3 24,7 5 3 ENE 1018,1 -
18.09.2018 16:00:00 26,4 24,8 11 6 NE 1018,4 -
18.09.2018 15:00:00 26,8 25,2 9 5 ENE 1018,7 -
18.09.2018 14:00:00 26,8 25,2 9 5 E 1019,1 0,0
18.09.2018 13:00:00 26,6 25,0 11 6 NE 1019,3 -
18.09.2018 12:00:00 26,4 24,8 8 4 NNE 1019,6 -
18.09.2018 11:00:00 25,6 25,4 11 6 ENE 1019,8 -
18.09.2018 10:00:00 25,3 25,2 11 6 NE 1019,7 -
18.09.2018 09:00:00 24,5 24,4 8 4 NNW 1019,6 -
18.09.2018 08:00:00 22,2 22,1 4 2 N 1019,3 -
18.09.2018 07:00:00 20,6 20,5 8 4 NNW 1019,2 -
18.09.2018 06:00:00 20,6 20,5 8 4 NNW 1018,9 -
18.09.2018 05:00:00 20,8 20,7 4 2 NNW 1018,8 -
18.09.2018 04:00:00 20,9 20,8 4 2 N 1018,6 -
18.09.2018 03:00:00 21,7 21,6 4 2 N 1018,7 -
18.09.2018 02:00:00 23,2 23,1 8 4 NNE 1018,6 0,0
18.09.2018 01:00:00 22,6 22,5 9 5 NNE 1018,8 -
18.09.2018 00:00:00 22,4 22,3 9 5 N 1018,9 -
17.09.2018 23:00:00 23,0 22,9 9 5 NNE 1019,1 -
17.09.2018 22:00:00 22,8 22,7 8 4 N 1019,1 -
17.09.2018 21:00:00 23,2 23,1 8 4 N 1019,1 -
17.09.2018 20:00:00 23,5 23,1 8 4 N 1018,9 -
17.09.2018 19:00:00 24,7 23,1 8 4 NNW 1018,8 -
17.09.2018 18:00:00 26,2 24,6 13 7 N 1018,6 -
17.09.2018 17:00:00 27,2 24,6 15 8 N 1018,8 -
17.09.2018 16:00:00 27,6 25,2 13 7 N 1019,1 -
17.09.2018 15:00:00 27,9 25,3 13 7 N 1019,5 -
17.09.2018 14:00:00 28,2 23,9 15 8 N 1019,9 0,0
17.09.2018 13:00:00 27,8 25,0 15 8 N 1020,0 -
17.09.2018 12:00:00 26,9 25,3 15 8 NNW 1020,1 -
17.09.2018 11:00:00 26,1 24,5 15 8 N 1020,4 -
17.09.2018 10:00:00 25,6 25,5 15 8 N 1020,3 -
17.09.2018 09:00:00 24,4 24,3 15 8 N 1019,8 -
17.09.2018 08:00:00 22,1 22,0 16 9 NNW 1019,8 0,0
17.09.2018 07:00:00 21,2 21,1 15 8 NW 1019,6 -
17.09.2018 06:00:00 21,3 21,2 13 7 NNW 1019,3 -
17.09.2018 05:00:00 21,4 21,3 15 8 NW 1019,2 -
17.09.2018 04:00:00 21,8 21,7 15 8 NNW 1019,1 -
17.09.2018 03:00:00 21,8 21,7 15 8 NNW 1019,4 -
17.09.2018 02:00:00 21,4 21,3 13 7 NW 1019,6 0,0
17.09.2018 01:00:00 21,3 21,2 13 7 NW 1019,8 -
17.09.2018 00:00:00 21,4 21,3 9 5 NNW 1020,0 -
16.09.2018 23:00:00 22,1 22,0 11 6 NNW 1020,0 -
16.09.2018 22:00:00 22,3 22,2 13 7 NNW 1020,2 -
16.09.2018 21:00:00 22,7 22,6 13 7 NW 1019,9 -
16.09.2018 20:00:00 23,8 23,7 15 8 NNW 1019,3 -
16.09.2018 19:00:00 24,8 23,2 15 8 NNW 1019,2 -
16.09.2018 18:00:00 26,0 24,4 18 10 NNW 1019,0 -
16.09.2018 17:00:00 26,4 24,8 24 13 N 1018,9 -
16.09.2018 16:00:00 26,8 25,2 26 14 N 1018,9 -
16.09.2018 15:00:00 26,7 25,1 26 14 N 1019,4 -
16.09.2018 14:00:00 27,1 26,4 22 12 N 1019,9 -
16.09.2018 13:00:00 26,8 26,5 26 14 N 1020,1 -
16.09.2018 12:00:00 26,8 26,8 22 12 N 1020,4 -
16.09.2018 11:00:00 26,0 26,0 22 12 N 1020,3 -
16.09.2018 10:00:00 25,3 25,2 21 11 NNW 1020,2 -
16.09.2018 09:00:00 24,8 24,7 18 10 N 1019,8 -
16.09.2018 08:00:00 22,6 22,5 13 7 N 1019,5 0,0
16.09.2018 07:00:00 20,8 20,7 11 6 NNW 1019,4 -
16.09.2018 06:00:00 20,3 20,2 13 7 NNW 1019,4 -
16.09.2018 05:00:00 20,4 20,3 11 6 NNW 1019,4 -
16.09.2018 04:00:00 20,7 20,6 11 6 NNW 1019,5 -
16.09.2018 03:00:00 20,3 20,2 13 7 NNW 1019,7 -
16.09.2018 02:00:00 20,3 20,2 11 6 NW 1019,9 0,0
16.09.2018 01:00:00 20,2 20,1 11 6 NW 1019,8 -
16.09.2018 00:00:00 20,8 20,7 9 5 NW 1019,8 -
15.09.2018 23:00:00 21,0 20,9 8 4 NNW 1019,5 -
15.09.2018 22:00:00 21,4 21,2 5 3 NW 1019,3 -
15.09.2018 21:00:00 21,8 21,4 4 2 NW 1019,4 -
15.09.2018 20:00:00 22,7 21,3 8 4 N 1018,8 0,0
15.09.2018 19:00:00 24,3 22,7 5 3 N 1018,3 -
15.09.2018 18:00:00 25,3 23,7 8 4 NNE 1018,2 -
15.09.2018 17:00:00 25,9 24,3 8 4 NE 1018,2 -
15.09.2018 16:00:00 26,2 24,6 8 4 E 1018,3 -
15.09.2018 15:00:00 25,8 25,6 9 5 E 1018,6 -
15.09.2018 14:00:00 25,9 25,9 11 6 NE 1018,5 0,0
15.09.2018 13:00:00 25,4 25,3 13 7 NE 1018,5 -
15.09.2018 12:00:00 25,9 25,9 11 6 NNE 1018,5 -
15.09.2018 11:00:00 - - - - - - -
15.09.2018 10:00:00 26,3 26,3 8 4 ENE 1018,1 -
15.09.2018 09:00:00 25,0 24,9 2 1 WSW 1017,7 -
15.09.2018 08:00:00 23,2 23,1 0 0 N 1017,5 0,0
15.09.2018 07:00:00 21,7 21,6 2 1 WNW 1017,1 -
15.09.2018 06:00:00 21,9 21,8 0 0 N 1016,5 -
15.09.2018 05:00:00 22,0 21,9 0 0 N 1016,4 -
15.09.2018 04:00:00 22,2 22,1 0 0 N 1016,5 -

tt = Température de l'air
td = dewpoint
ff = Vitesse du vent
dd = Direction du vent
ppp = reduced air pressure
rr = Quantités de précipitations

stations d'obs. à proximité